Time;durP1;ratioP1;P1;durP2;ratioP2;P2;SDS_P1;SDS_P2;PMS_P1;PMS_P2;Temp;Humidity;BMP_temperature;BMP_pressure;BME280_temperature;BME280_humidity;BME280_pressure;Samples;Min_cycle;Max_cycle;Signal;HPM_P1;HPM_P2
2021/03/13 00:01:19;;;;;;;2.50;1.33;;;;;;;5.04;96.95;95542.78;5080109;28;20419;-88
2021/03/13 00:03:45;;;;;;;1.27;0.60;;;;;;;5.08;96.54;95543.88;5079901;28;20973;-90
2021/03/13 00:06:12;;;;;;;2.00;0.80;;;;;;;5.10;96.69;95554.06;5081582;28;20552;-90
2021/03/13 00:08:41;;;;;;;4.47;0.70;;;;;;;5.15;96.73;95553.94;5080266;28;20460;-90
2021/03/13 00:11:10;;;;;;;0.80;0.50;;;;;;;5.16;97.17;95549.31;5080606;28;20508;-90
2021/03/13 00:13:45;;;;;;;0.70;0.53;;;;;;;5.25;97.28;95554.19;5081069;28;20459;-91
2021/03/13 00:16:11;;;;;;;1.03;0.60;;;;;;;5.30;97.05;95547.97;5080933;28;20449;-92
2021/03/13 00:18:37;;;;;;;1.80;0.80;;;;;;;5.34;97.01;95545.69;5081597;28;20461;-93
2021/03/13 00:21:07;;;;;;;0.97;0.70;;;;;;;5.38;97.22;95546.06;5080365;28;20869;-91
2021/03/13 00:23:34;;;;;;;0.80;0.50;;;;;;;5.43;97.40;95547.16;5082848;28;20475;-90
2021/03/13 00:26:00;;;;;;;1.27;0.63;;;;;;;5.43;97.84;95550.56;5094692;28;20440;-90
2021/03/13 00:28:31;;;;;;;2.13;0.83;;;;;;;5.39;97.45;95545.53;5081840;28;20470;-93
2021/03/13 00:30:57;;;;;;;1.90;0.90;;;;;;;5.49;98.20;95553.09;5082367;28;20445;-93
2021/03/13 00:33:27;;;;;;;4.10;0.97;;;;;;;5.53;97.86;95551.53;5080409;28;20512;-89
2021/03/13 00:35:53;;;;;;;2.80;0.90;;;;;;;5.67;97.31;95555.53;5079554;28;20462;-86
2021/03/13 00:38:20;;;;;;;2.50;0.80;;;;;;;5.71;97.04;95550.56;5078582;28;20506;-86
2021/03/13 00:40:47;;;;;;;1.50;0.80;;;;;;;5.70;96.93;95548.41;5078901;28;20527;-83
2021/03/13 00:43:15;;;;;;;3.37;1.10;;;;;;;5.77;97.06;95539.69;5079219;28;20756;-83
2021/03/13 00:45:43;;;;;;;7.40;1.43;;;;;;;5.75;97.36;95528.81;5079067;28;20467;-83
2021/03/13 00:48:10;;;;;;;3.17;1.30;;;;;;;5.62;97.76;95528.91;5079597;28;20954;-83
2021/03/13 00:50:39;;;;;;;2.70;1.17;;;;;;;5.71;98.40;95537.16;5079222;28;20504;-83
2021/03/13 00:53:06;;;;;;;4.57;1.20;;;;;;;5.70;98.40;95527.00;5079314;28;20466;-83
2021/03/13 00:55:32;;;;;;;3.93;1.03;;;;;;;5.62;98.33;95524.28;5079146;28;20503;-83
2021/03/13 00:57:59;;;;;;;4.23;0.90;;;;;;;5.64;98.27;95516.44;5078523;28;20480;-85
2021/03/13 01:00:26;;;;;;;2.30;0.70;;;;;;;5.62;97.49;95512.84;5078560;28;20881;-85
2021/03/13 01:02:54;;;;;;;1.00;0.60;;;;;;;5.67;97.18;95507.34;5077720;28;20469;-85
2021/03/13 01:05:20;;;;;;;2.30;0.53;;;;;;;5.67;96.75;95501.31;5088413;28;20458;-83
2021/03/13 01:07:47;;;;;;;1.27;0.63;;;;;;;5.55;97.11;95510.84;5098038;28;20396;-83
2021/03/13 01:10:16;;;;;;;1.83;0.43;;;;;;;5.54;97.78;95528.88;5098096;28;20448;-83
2021/03/13 01:12:43;;;;;;;1.13;0.47;;;;;;;5.52;97.92;95530.63;5096849;28;20455;-85
2021/03/13 01:15:12;;;;;;;2.70;0.63;;;;;;;5.43;97.79;95501.69;5096063;28;20449;-84
2021/03/13 01:17:38;;;;;;;1.00;0.40;;;;;;;5.42;97.64;95484.22;5086728;28;20444;-84
2021/03/13 01:20:12;;;;;;;1.10;0.50;;;;;;;5.28;98.14;95470.94;5081087;28;20452;-84
2021/03/13 01:22:40;;;;;;;1.00;0.60;;;;;;;5.30;98.13;95471.13;5077721;28;20430;-85
2021/03/13 01:25:07;;;;;;;0.67;0.40;;;;;;;5.29;98.34;95459.00;5081605;28;20459;-84
2021/03/13 01:27:34;;;;;;;2.27;0.40;;;;;;;5.29;98.50;95464.34;5081328;28;20491;-84
2021/03/13 01:30:00;;;;;;;2.87;0.40;;;;;;;5.29;98.37;95450.97;5082551;28;20422;-83
2021/03/13 01:32:26;;;;;;;1.87;0.50;;;;;;;5.38;97.92;95447.84;5082783;28;20545;-83
2021/03/13 01:34:52;;;;;;;1.07;0.40;;;;;;;5.30;97.74;95447.06;5084735;28;20445;-83
2021/03/13 01:37:23;;;;;;;1.10;0.70;;;;;;;5.33;98.15;95443.34;5083092;28;20495;-83
2021/03/13 01:39:50;;;;;;;0.70;0.50;;;;;;;5.27;98.25;95434.75;5083549;28;20416;-83
2021/03/13 01:42:16;;;;;;;1.20;0.50;;;;;;;5.13;99.13;95433.44;5082487;28;20426;-84
2021/03/13 01:44:43;;;;;;;2.60;0.53;;;;;;;5.17;99.50;95433.78;5081797;28;20441;-84
2021/03/13 01:47:15;;;;;;;0.60;0.60;;;;;;;5.20;99.12;95432.03;5081441;28;20441;-82
2021/03/13 01:49:42;;;;;;;1.10;0.60;;;;;;;5.24;99.53;95427.06;5081683;28;20484;-83
2021/03/13 01:52:08;;;;;;;0.67;0.47;;;;;;;5.14;99.02;95413.47;5080938;28;20572;-84
2021/03/13 01:54:35;;;;;;;7.40;0.93;;;;;;;5.14;99.49;95410.06;5081352;28;20421;-84
2021/03/13 01:57:02;;;;;;;3.27;1.23;;;;;;;5.18;99.72;95403.16;5081332;28;20536;-83
2021/03/13 01:59:29;;;;;;;1.50;0.73;;;;;;;5.14;99.98;95402.03;5081466;28;20441;-84
2021/03/13 02:01:55;;;;;;;1.63;0.90;;;;;;;5.04;100.00;95399.16;5080648;28;20520;-83
2021/03/13 02:04:21;;;;;;;3.10;1.00;;;;;;;5.05;100.00;95389.88;5081700;28;20540;-84
2021/03/13 02:06:58;;;;;;;1.37;0.80;;;;;;;5.03;100.00;95387.03;5081133;28;20527;-84
2021/03/13 02:09:29;;;;;;;3.80;0.90;;;;;;;5.05;100.00;95371.16;5081001;28;20516;-84
2021/03/13 02:12:06;;;;;;;1.30;0.57;;;;;;;5.02;100.00;95368.84;5080603;28;20499;-85
2021/03/13 02:14:37;;;;;;;2.10;0.50;;;;;;;5.02;100.00;95355.47;5081383;28;20420;-84
2021/03/13 02:17:09;;;;;;;4.90;1.30;;;;;;;5.02;100.00;95352.78;5080739;28;20599;-85
2021/03/13 02:20:10;;;;;;;1.67;0.80;;;;;;;4.92;100.00;95352.56;5080948;28;20501;-85
2021/03/13 02:22:38;;;;;;;1.20;0.83;;;;;;;4.88;100.00;95346.16;5063695;28;20419;-84
2021/03/13 02:25:07;;;;;;;2.23;1.10;;;;;;;4.92;100.00;95349.91;5079935;28;20458;-84
2021/03/13 02:27:41;;;;;;;1.07;0.77;;;;;;;4.90;100.00;95344.38;5079416;28;20441;-84
2021/03/13 02:30:12;;;;;;;2.17;1.20;;;;;;;4.92;100.00;95338.50;5080462;28;20489;-85
2021/03/13 02:32:42;;;;;;;1.70;0.90;;;;;;;4.79;100.00;95344.69;5081012;28;20440;-84
2021/03/13 02:35:12;;;;;;;5.57;0.67;;;;;;;4.81;100.00;95348.25;5080052;28;20785;-84
2021/03/13 02:37:42;;;;;;;3.23;0.90;;;;;;;4.92;100.00;95349.91;5080006;28;20447;-84
2021/03/13 02:40:10;;;;;;;2.70;0.90;;;;;;;4.90;100.00;95344.38;5081177;28;20785;-84
2021/03/13 02:42:46;;;;;;;5.57;1.27;;;;;;;4.92;100.00;95349.91;5080540;28;20446;-84
2021/03/13 02:45:15;;;;;;;4.30;0.97;;;;;;;4.95;100.00;95340.13;5080224;28;20461;-84
2021/03/13 02:47:43;;;;;;;3.80;1.07;;;;;;;4.99;100.00;95337.81;5080793;28;20446;-82
2021/03/13 02:50:11;;;;;;;2.40;1.07;;;;;;;5.03;100.00;95335.53;5082502;28;20574;-82
2021/03/13 02:52:39;;;;;;;3.93;1.10;;;;;;;5.07;100.00;95317.19;5082812;28;20858;-82
2021/03/13 02:55:10;;;;;;;1.30;0.80;;;;;;;5.10;100.00;95319.53;5082189;28;20464;-82
2021/03/13 02:57:37;;;;;;;3.73;0.80;;;;;;;5.01;100.00;95311.97;5082537;28;20449;-83
2021/03/13 03:00:06;;;;;;;1.67;1.00;;;;;;;5.03;100.00;95322.88;5080938;28;20545;-83
2021/03/13 03:02:34;;;;;;;2.33;0.97;;;;;;;5.03;100.00;95314.84;5080714;28;20500;-83
2021/03/13 03:05:02;;;;;;;1.90;0.80;;;;;;;5.06;99.60;95316.47;5081714;28;20476;-83
2021/03/13 03:07:28;;;;;;;9.10;1.40;;;;;;;5.01;99.64;95324.66;5061168;28;20441;-83
2021/03/13 03:09:55;;;;;;;6.33;1.60;;;;;;;5.00;99.55;95318.59;5061988;28;20485;-82
2021/03/13 03:12:22;;;;;;;2.90;1.10;;;;;;;5.02;99.44;95321.44;5061934;28;20478;-82
2021/03/13 03:14:50;;;;;;;6.60;1.73;;;;;;;5.03;99.58;95322.16;5060692;28;21075;-84
2021/03/13 03:17:16;;;;;;;3.63;0.80;;;;;;;5.02;99.58;95318.78;5060503;28;20826;-82
2021/03/13 03:19:46;;;;;;;7.77;1.33;;;;;;;5.07;99.07;95319.88;5060707;28;20474;-83
2021/03/13 03:22:14;;;;;;;5.13;1.30;;;;;;;5.14;98.42;95311.88;5060785;28;20819;-82
2021/03/13 03:24:42;;;;;;;1.20;0.80;;;;;;;5.16;98.11;95317.41;5060928;28;20560;-83
2021/03/13 03:27:08;;;;;;;2.50;1.00;;;;;;;5.13;97.76;95307.06;5060257;28;20526;-83
2021/03/13 03:29:34;;;;;;;5.87;1.37;;;;;;;5.20;97.83;95303.72;5059683;28;20473;-84
2021/03/13 03:32:00;;;;;;;4.17;1.20;;;;;;;5.28;97.58;95310.50;5061612;28;20483;-83
2021/03/13 03:34:26;;;;;;;3.40;0.87;;;;;;;5.29;97.50;95319.94;5063459;28;20430;-83
2021/03/13 03:36:53;;;;;;;3.60;1.30;;;;;;;5.27;97.11;95305.66;5063400;28;20490;-83
2021/03/13 03:39:20;;;;;;;5.97;1.73;;;;;;;5.30;97.03;95305.31;5063690;28;20510;-83
2021/03/13 03:41:50;;;;;;;12.67;2.13;;;;;;;5.39;97.21;95304.81;5063242;28;20451;-83
2021/03/13 03:44:20;;;;;;;7.37;1.30;;;;;;;5.48;96.59;95294.88;5070849;28;20474;-84
2021/03/13 03:46:49;;;;;;;1.30;0.77;;;;;;;5.50;96.24;95300.38;5060684;28;20446;-83
2021/03/13 03:49:17;;;;;;;3.00;1.50;;;;;;;5.56;94.92;95295.59;5060572;28;20794;-83
2021/03/13 03:51:44;;;;;;;5.03;0.80;;;;;;;5.55;95.21;95299.50;5060079;28;20460;-84
2021/03/13 03:54:12;;;;;;;16.33;2.30;;;;;;;5.61;94.44;95292.72;5059357;28;20499;-84
2021/03/13 03:56:39;;;;;;;4.37;1.63;;;;;;;5.66;94.05;95293.81;5059567;28;20808;-84
2021/03/13 03:59:09;;;;;;;7.80;1.07;;;;;;;5.69;93.42;95290.81;5059408;28;20438;-84
2021/03/13 04:01:36;;;;;;;5.63;1.20;;;;;;;5.77;93.13;95282.75;5059041;28;20511;-83
2021/03/13 04:04:06;;;;;;;2.67;1.20;;;;;;;5.77;93.04;95291.50;5069815;28;20472;-84
2021/03/13 04:06:33;;;;;;;3.03;1.03;;;;;;;5.86;93.12;95284.94;5094227;28;20472;-84
2021/03/13 04:09:02;;;;;;;6.97;1.43;;;;;;;5.92;92.00;95288.88;5097550;28;20461;-83
2021/03/13 04:11:30;;;;;;;1.37;0.80;;;;;;;5.88;92.47;95272.47;5098036;28;20458;-84
2021/03/13 04:13:58;;;;;;;4.40;1.50;;;;;;;5.96;92.69;95277.09;5092662;28;20489;-84
2021/03/13 04:16:26;;;;;;;4.10;0.87;;;;;;;5.99;92.18;95278.69;5078051;28;20552;-84
2021/03/13 04:18:52;;;;;;;6.17;1.00;;;;;;;6.01;92.31;95276.94;5078232;28;20429;-85
2021/03/13 04:21:18;;;;;;;2.20;0.90;;;;;;;6.01;92.31;95284.25;5078696;28;20537;-84
2021/03/13 04:23:47;;;;;;;7.00;1.20;;;;;;;6.02;91.95;95280.31;5079396;28;20416;-85
2021/03/13 04:26:14;;;;;;;5.77;1.50;;;;;;;6.08;91.72;95284.22;5079088;28;20553;-85
2021/03/13 04:28:41;;;;;;;1.77;0.90;;;;;;;6.10;91.56;95281.75;5079426;28;20438;-83
2021/03/13 04:31:08;;;;;;;2.90;1.20;;;;;;;6.15;90.98;95285.47;5080630;28;20479;-83
2021/03/13 04:33:36;;;;;;;3.40;1.13;;;;;;;6.08;91.67;95273.53;5081318;28;20514;-83
2021/03/13 04:36:04;;;;;;;4.20;1.10;;;;;;;6.19;90.87;95273.16;5080860;28;20883;-83
2021/03/13 04:38:31;;;;;;;1.53;0.80;;;;;;;6.19;90.87;95270.50;5080869;28;20416;-83
2021/03/13 04:40:58;;;;;;;4.87;0.90;;;;;;;6.21;90.87;95267.97;5080290;28;20453;-83
2021/03/13 04:43:26;;;;;;;6.13;1.00;;;;;;;6.24;90.15;95274.94;5080608;28;20894;-83
2021/03/13 04:45:56;;;;;;;7.00;0.77;;;;;;;6.29;90.67;95268.72;5080861;28;20507;-83
2021/03/13 04:48:22;;;;;;;2.37;0.90;;;;;;;6.32;90.15;95264.94;5079737;28;21114;-83
2021/03/13 04:50:49;;;;;;;3.17;0.87;;;;;;;6.37;89.35;95272.06;5079147;28;21003;-84
2021/03/13 04:53:15;;;;;;;2.43;0.67;;;;;;;6.35;89.71;95258.53;5079010;28;20474;-84
2021/03/13 04:55:41;;;;;;;2.00;0.73;;;;;;;6.33;89.62;95269.03;5078852;28;20461;-83
2021/03/13 04:58:08;;;;;;;2.47;0.80;;;;;;;6.30;89.93;95266.72;5080062;28;20445;-84
2021/03/13 05:00:35;;;;;;;1.47;0.80;;;;;;;6.30;90.04;95258.69;5083201;28;20467;-84
2021/03/13 05:03:02;;;;;;;2.10;0.90;;;;;;;6.27;89.69;95257.09;5082737;28;20518;-83
2021/03/13 05:05:32;;;;;;;2.13;0.87;;;;;;;6.21;89.70;95243.16;5082774;28;20516;-84
2021/03/13 05:07:58;;;;;;;1.63;0.60;;;;;;;6.16;90.16;95244.06;5082937;28;20409;-84
2021/03/13 05:10:24;;;;;;;2.30;0.97;;;;;;;6.17;90.28;95229.44;5082725;28;20495;-83
2021/03/13 05:12:51;;;;;;;4.90;0.70;;;;;;;6.21;89.86;95233.16;5083581;28;20596;-83
2021/03/13 05:15:18;;;;;;;2.73;0.87;;;;;;;6.25;89.45;95238.88;5083675;28;20814;-82
2021/03/13 05:17:44;;;;;;;4.63;0.90;;;;;;;6.18;89.87;95233.53;5084230;28;20591;-82
2021/03/13 05:20:12;;;;;;;1.97;0.87;;;;;;;6.20;90.16;95221.03;5084683;28;20692;-82
2021/03/13 05:22:39;;;;;;;3.67;1.27;;;;;;;6.32;88.60;95232.81;5083895;28;20462;-82
2021/03/13 05:25:07;;;;;;;2.10;0.50;;;;;;;6.38;88.10;95229.94;5084032;28;20461;-82
2021/03/13 05:27:33;;;;;;;4.93;1.10;;;;;;;6.41;88.33;95224.22;5084445;28;20468;-83
2021/03/13 05:29:59;;;;;;;7.20;1.03;;;;;;;6.40;87.41;95228.13;5083228;28;20524;-83
2021/03/13 05:32:26;;;;;;;4.00;1.17;;;;;;;6.38;87.71;95211.91;5083967;28;20469;-83
2021/03/13 05:34:54;;;;;;;1.37;0.73;;;;;;;6.47;87.67;95205.25;5083439;28;20444;-83
2021/03/13 05:37:21;;;;;;;3.60;0.87;;;;;;;6.38;87.48;95216.53;5083945;28;20424;-83
2021/03/13 05:39:47;;;;;;;1.80;0.83;;;;;;;6.47;86.73;95222.06;5083076;28;20423;-83
2021/03/13 05:42:14;;;;;;;3.03;2.10;;;;;;;6.55;85.76;95226.69;5083208;28;20441;-84
2021/03/13 05:44:41;;;;;;;4.00;0.67;;;;;;;6.57;86.03;95226.84;5084083;28;20516;-84
2021/03/13 05:47:08;;;;;;;2.10;0.67;;;;;;;6.55;86.66;95215.97;5082887;28;20521;-83
2021/03/13 05:49:38;;;;;;;1.90;0.70;;;;;;;6.57;86.47;95202.72;5082358;28;20424;-82
2021/03/13 05:52:07;;;;;;;2.80;0.70;;;;;;;6.62;86.01;95201.81;5082171;28;20447;-83
2021/03/13 05:54:34;;;;;;;2.17;1.13;;;;;;;6.61;85.96;95214.50;5083860;28;20793;-83
2021/03/13 05:57:00;;;;;;;2.63;1.43;;;;;;;6.66;85.79;95210.19;5084122;28;20515;-82
2021/03/13 05:59:27;;;;;;;4.10;0.77;;;;;;;6.65;85.36;95198.03;5083009;28;20423;-83
2021/03/13 06:01:53;;;;;;;3.23;0.90;;;;;;;6.78;84.79;95192.44;5083231;28;20925;-83
2021/03/13 06:04:19;;;;;;;2.63;0.80;;;;;;;6.79;84.08;95197.28;5083710;28;20446;-83
2021/03/13 06:06:48;;;;;;;2.77;0.90;;;;;;;6.84;84.33;95196.34;5083256;28;20820;-83
2021/03/13 06:09:14;;;;;;;5.23;1.40;;;;;;;6.91;83.74;95178.81;5082393;28;20535;-83
2021/03/13 06:11:41;;;;;;;4.10;0.90;;;;;;;7.00;83.00;95186.28;5082272;28;20500;-82
2021/03/13 06:14:07;;;;;;;3.40;1.37;;;;;;;6.98;83.11;95183.44;5082945;28;20512;-84
2021/03/13 06:16:34;;;;;;;5.10;1.33;;;;;;;6.95;82.15;95185.22;5081786;28;20514;-84
2021/03/13 06:19:00;;;;;;;8.13;1.53;;;;;;;6.95;81.79;95189.88;5082555;28;20408;-86
2021/03/13 06:21:30;;;;;;;4.77;1.07;;;;;;;7.05;81.69;95188.03;5082517;28;20610;-84
2021/03/13 06:23:59;;;;;;;7.43;1.33;;;;;;;7.10;81.77;95186.41;5082779;28;20430;-83
2021/03/13 06:26:26;;;;;;;9.70;1.13;;;;;;;7.24;81.29;95182.19;5083863;28;20428;-83
2021/03/13 06:28:55;;;;;;;1.03;0.67;;;;;;;7.27;80.59;95179.13;5082573;28;20491;-83
2021/03/13 06:31:26;;;;;;;3.53;0.73;;;;;;;7.35;79.22;95179.81;5081929;28;20441;-83
2021/03/13 06:33:52;;;;;;;4.33;1.83;;;;;;;7.39;79.00;95155.28;5081377;28;20509;-83
2021/03/13 06:36:24;;;;;;;1.47;0.80;;;;;;;7.48;78.80;95174.19;5081473;28;20464;-82
2021/03/13 06:38:51;;;;;;;6.50;1.20;;;;;;;7.51;78.16;95162.34;5082029;28;20515;-84
2021/03/13 06:41:19;;;;;;;6.03;0.90;;;;;;;7.57;78.03;95164.81;5082295;28;20959;-84
2021/03/13 06:43:46;;;;;;;2.27;0.80;;;;;;;7.46;77.72;95151.81;5082517;28;20480;-85
2021/03/13 06:46:14;;;;;;;5.80;1.00;;;;;;;7.57;77.37;95164.09;5083008;28;20432;-82
2021/03/13 06:48:44;;;;;;;4.07;1.20;;;;;;;7.72;76.78;95163.97;5083784;28;20452;-82
2021/03/13 06:51:21;;;;;;;5.63;2.40;;;;;;;7.78;76.65;95167.84;5082632;28;20497;-83
2021/03/13 06:54:00;;;;;;;2.10;0.93;;;;;;;7.89;75.69;95155.94;5082365;28;20462;-83
2021/03/13 06:56:27;;;;;;;4.97;0.83;;;;;;;7.91;75.59;95139.97;5081003;28;20552;-84
2021/03/13 06:58:53;;;;;;;2.77;1.03;;;;;;;7.91;75.46;95135.31;5081620;28;20461;-85
2021/03/13 07:01:26;;;;;;;2.73;0.77;;;;;;;7.99;75.10;95124.50;5080880;28;20430;-85
2021/03/13 07:03:52;;;;;;;6.13;1.03;;;;;;;7.91;74.82;95124.59;5086023;28;20412;-85
2021/03/13 07:06:18;;;;;;;4.70;0.90;;;;;;;8.04;73.88;95126.97;5099809;28;20468;-83
2021/03/13 07:08:45;;;;;;;1.27;0.57;;;;;;;8.20;73.74;95119.44;5099842;28;20396;-83
2021/03/13 07:11:17;;;;;;;7.43;1.20;;;;;;;8.14;73.79;95124.34;5099204;28;20475;-84
2021/03/13 07:13:45;;;;;;;6.73;1.07;;;;;;;8.15;73.57;95117.69;5095729;28;20509;-84
2021/03/13 07:16:34;;;;;;;2.90;0.63;;;;;;;8.28;73.19;95108.63;5090613;28;20443;-84
2021/03/13 07:19:03;;;;;;;1.80;0.80;;;;;;;8.38;73.17;95115.50;5079715;28;20415;-83
2021/03/13 07:21:30;;;;;;;1.70;0.90;;;;;;;8.58;71.88;95116.34;5079932;28;20441;-84
2021/03/13 07:23:59;;;;;;;3.80;0.80;;;;;;;8.90;70.29;95112.69;5080784;28;20412;-82
2021/03/13 07:26:28;;;;;;;2.60;0.70;;;;;;;8.93;69.76;95104.22;5080766;28;20435;-85
2021/03/13 07:28:58;;;;;;;2.17;1.17;;;;;;;8.84;70.03;95098.78;5080663;28;20441;-83
2021/03/13 07:31:26;;;;;;;1.47;0.87;;;;;;;8.98;68.87;95100.56;5080493;28;20409;-84
2021/03/13 07:33:55;;;;;;;3.83;1.23;;;;;;;9.22;67.88;95098.94;5081323;28;20535;-84
2021/03/13 07:36:23;;;;;;;4.37;1.00;;;;;;;9.22;68.50;95093.56;5081737;28;20457;-83
2021/03/13 07:38:51;;;;;;;2.13;0.70;;;;;;;9.51;67.34;95090.97;5081132;28;20501;-84
2021/03/13 07:41:19;;;;;;;5.67;0.73;;;;;;;9.84;65.52;95097.38;5080552;28;20520;-85
2021/03/13 07:43:46;;;;;;;3.60;0.50;;;;;;;9.56;65.94;95084.59;5082095;28;20504;-86
2021/03/13 07:46:12;;;;;;;4.60;0.83;;;;;;;9.45;65.99;95085.13;5079848;28;20473;-85
2021/03/13 07:48:40;;;;;;;2.50;0.83;;;;;;;9.43;66.23;95085.00;5080659;28;20420;-85
2021/03/13 07:51:08;;;;;;;3.33;0.80;;;;;;;9.38;66.72;95085.97;5080370;28;20453;-86
2021/03/13 07:53:37;;;;;;;3.63;0.87;;;;;;;9.24;66.33;95066.78;5079983;28;20456;-85
2021/03/13 07:56:07;;;;;;;1.73;0.63;;;;;;;9.25;65.80;95075.59;5080473;28;20811;-86
2021/03/13 07:58:37;;;;;;;5.37;1.17;;;;;;;9.39;66.13;95079.31;5081033;28;20489;-86
2021/03/13 08:01:04;;;;;;;0.70;0.50;;;;;;;9.47;66.03;95080.59;5080938;28;20512;-86
2021/03/13 08:03:45;;;;;;;8.17;1.00;;;;;;;9.51;65.73;95077.50;5080442;28;20945;-86
2021/03/13 08:06:13;;;;;;;1.93;0.93;;;;;;;9.47;65.95;95080.59;5080460;28;20469;-85
2021/03/13 08:08:41;;;;;;;4.13;0.87;;;;;;;9.49;65.45;95053.81;5079621;28;20509;-86
2021/03/13 08:11:08;;;;;;;3.43;0.80;;;;;;;9.47;65.74;95048.31;5078030;28;20499;-86
2021/03/13 08:13:55;;;;;;;0.53;0.43;;;;;;;9.29;65.49;95047.00;5080257;28;20489;-85
2021/03/13 08:16:35;;;;;;;1.37;0.50;;;;;;;9.30;65.18;95040.34;5080193;28;20431;-85
2021/03/13 08:19:03;;;;;;;1.97;0.50;;;;;;;9.28;65.29;95042.16;5079330;28;20486;-84
2021/03/13 08:21:43;;;;;;;6.60;1.03;;;;;;;9.38;65.05;95045.59;5079178;28;20935;-86
2021/03/13 08:24:10;;;;;;;2.03;0.80;;;;;;;9.36;64.57;95016.56;5080121;28;20396;-86
2021/03/13 08:27:08;;;;;;;0.87;0.47;;;;;;;9.38;64.20;95005.91;5080058;28;20465;-86
2021/03/13 08:29:55;;;;;;;1.70;0.83;;;;;;;9.40;63.68;95034.97;5079365;28;20416;-85
2021/03/13 08:33:02;;;;;;;2.37;0.80;;;;;;;9.38;62.63;95013.28;5079137;28;20484;-86
2021/03/13 08:35:50;;;;;;;0.70;0.50;;;;;;;9.32;62.57;94997.41;5080066;28;20553;-85
2021/03/13 08:38:54;;;;;;;3.80;0.83;;;;;;;9.25;62.36;94994.84;5079388;28;20501;-85
2021/03/13 08:41:52;;;;;;;1.47;0.60;;;;;;;9.25;61.83;94995.56;5078929;28;20449;-85
2021/03/13 08:44:32;;;;;;;1.10;0.60;;;;;;;9.27;61.12;94976.16;5079369;28;20409;-86
2021/03/13 08:46:59;;;;;;;2.27;0.53;;;;;;;9.43;61.18;95007.63;5079882;28;20422;-84
2021/03/13 08:49:38;;;;;;;1.63;0.53;;;;;;;9.62;60.38;95004.94;5080671;28;20481;-84
2021/03/13 08:52:26;;;;;;;4.00;0.90;;;;;;;9.82;60.22;95007.66;5079432;28;20415;-84
2021/03/13 08:54:54;;;;;;;9.23;0.90;;;;;;;9.94;60.09;94989.63;5080408;28;20472;-84
2021/03/13 08:57:43;;;;;;;6.03;1.00;;;;;;;10.06;59.73;95001.22;5079593;28;20438;-84
2021/03/13 09:00:10;;;;;;;2.27;0.73;;;;;;;9.97;58.87;94983.09;5082222;28;20437;-85
2021/03/13 09:02:38;;;;;;;4.40;1.00;;;;;;;10.03;58.96;94961.94;5081731;28;20420;-85
2021/03/13 09:05:06;;;;;;;3.20;0.80;;;;;;;10.15;58.07;94976.28;5079268;28;20440;-85
2021/03/13 09:07:33;;;;;;;2.80;1.07;;;;;;;10.21;58.88;94963.25;5079794;28;20441;-84
2021/03/13 09:10:00;;;;;;;2.10;0.80;;;;;;;10.25;57.98;94955.41;5079897;28;20877;-85
2021/03/13 09:12:28;;;;;;;3.57;1.10;;;;;;;10.28;57.71;94951.56;5079142;28;20982;-84
2021/03/13 09:14:56;;;;;;;9.90;2.30;;;;;;;10.30;57.50;94959.81;5078788;28;20927;-85
2021/03/13 09:17:25;;;;;;;4.10;0.93;;;;;;;10.30;56.72;94942.91;5083035;28;20462;-85
2021/03/13 09:19:52;;;;;;;6.10;1.80;;;;;;;10.32;57.20;94935.66;5086397;28;20447;-87
2021/03/13 09:22:19;;;;;;;1.73;0.80;;;;;;;10.38;56.62;94911.81;5084431;28;20501;-85
2021/03/13 09:24:53;;;;;;;5.33;0.97;;;;;;;10.48;56.11;94909.06;5082258;28;20503;-88
2021/03/13 09:27:25;;;;;;;2.30;0.93;;;;;;;10.46;56.02;94923.13;5083112;28;20476;-85
2021/03/13 09:29:53;;;;;;;3.30;0.80;;;;;;;10.39;56.67;94923.31;5091228;28;20465;-85
2021/03/13 09:32:20;;;;;;;1.63;0.70;;;;;;;10.48;56.72;94904.38;5093998;28;20437;-84
2021/03/13 09:34:48;;;;;;;2.50;1.03;;;;;;;10.59;56.43;94903.75;5085852;28;20480;-85
2021/03/13 09:37:16;;;;;;;2.77;0.63;;;;;;;10.63;55.62;94911.41;5081446;28;20427;-84
2021/03/13 09:39:43;;;;;;;5.00;1.10;;;;;;;10.56;55.69;94885.31;5080035;28;20412;-84
2021/03/13 09:42:15;;;;;;;2.23;1.17;;;;;;;10.60;55.67;94899.06;5080559;28;20583;-85
2021/03/13 09:44:45;;;;;;;3.50;1.13;;;;;;;10.77;55.11;94900.84;5082317;28;20426;-85
2021/03/13 09:47:20;;;;;;;3.13;0.90;;;;;;;10.77;54.61;94879.25;5085046;28;20448;-85
2021/03/13 09:49:48;;;;;;;4.20;0.90;;;;;;;10.84;54.70;94881.75;5086039;28;20449;-85
2021/03/13 09:52:14;;;;;;;4.00;0.50;;;;;;;10.96;55.05;94889.94;5083612;28;20465;-85
2021/03/13 09:54:42;;;;;;;2.10;0.80;;;;;;;11.06;55.32;94893.25;5084230;28;20539;-85
2021/03/13 09:57:10;;;;;;;7.00;0.90;;;;;;;11.10;55.29;94898.91;5085026;28;20489;-85
2021/03/13 09:59:36;;;;;;;3.53;0.53;;;;;;;11.03;54.91;94902.50;5085207;28;20532;-85
2021/03/13 10:02:04;;;;;;;3.93;0.70;;;;;;;11.03;55.66;94870.13;5087636;28;20461;-85
2021/03/13 10:04:57;;;;;;;0.90;0.50;;;;;;;10.91;55.63;94867.38;5097958;28;20463;-84
2021/03/13 10:07:24;;;;;;;2.70;0.60;;;;;;;10.87;55.83;94885.31;5099778;28;20418;-87
2021/03/13 10:09:52;;;;;;;4.63;0.70;;;;;;;10.77;56.15;94887.34;5099193;28;20504;-85
2021/03/13 10:12:27;;;;;;;2.60;0.63;;;;;;;10.75;56.82;94882.53;5093918;28;20429;-84
2021/03/13 10:14:54;;;;;;;8.03;1.03;;;;;;;10.66;56.98;94872.50;5083063;28;20453;-84
2021/03/13 10:17:21;;;;;;;2.77;0.73;;;;;;;10.77;57.20;94883.34;5083464;28;20545;-83
2021/03/13 10:19:49;;;;;;;2.50;0.50;;;;;;;10.73;56.19;94871.59;5087414;28;20455;-83
2021/03/13 10:22:19;;;;;;;2.07;0.80;;;;;;;10.65;56.34;94869.09;5090187;28;20452;-84
2021/03/13 10:24:49;;;;;;;1.47;0.80;;;;;;;10.64;57.61;94850.78;5093694;28;20373;-87
2021/03/13 10:27:19;;;;;;;1.47;1.00;;;;;;;10.63;57.24;94823.09;5092200;28;20526;-86
2021/03/13 10:29:50;;;;;;;4.20;0.70;;;;;;;10.54;57.13;94858.22;5089019;28;21087;-84
2021/03/13 10:32:24;;;;;;;2.63;0.90;;;;;;;10.54;57.32;94834.66;5082558;28;20525;-84
2021/03/13 10:35:08;;;;;;;2.43;0.63;;;;;;;10.55;57.33;94835.38;5084039;28;20408;-84
2021/03/13 10:37:36;;;;;;;0.77;0.40;;;;;;;10.63;57.30;94844.69;5082782;28;20493;-84
2021/03/13 10:40:03;;;;;;;1.23;0.77;;;;;;;10.61;57.26;94833.78;5082505;28;20495;-83
2021/03/13 10:42:34;;;;;;;1.33;0.47;;;;;;;10.60;57.54;94837.75;5081503;28;20464;-88
2021/03/13 10:45:14;;;;;;;1.93;0.50;;;;;;;10.58;57.81;94831.53;5082726;28;20437;-87
2021/03/13 10:47:45;;;;;;;0.93;0.43;;;;;;;10.63;57.70;94842.00;5082359;28;20429;-88
2021/03/13 10:50:12;;;;;;;3.17;1.07;;;;;;;10.56;58.25;94828.69;5085588;28;20400;-89
2021/03/13 10:52:38;;;;;;;1.70;0.80;;;;;;;10.59;57.35;94830.22;5088763;28;20490;-91
2021/03/13 10:55:06;;;;;;;1.07;0.43;;;;;;;10.55;57.17;94829.97;5089140;28;20489;-90
2021/03/13 10:57:32;;;;;;;1.67;0.90;;;;;;;10.57;57.00;94813.91;5085417;28;20412;-89
2021/03/13 10:59:59;;;;;;;1.47;0.60;;;;;;;10.58;57.34;94820.75;5082507;28;20449;-90
2021/03/13 11:02:27;;;;;;;0.90;0.70;;;;;;;10.55;57.46;94821.91;5084353;28;20412;-91
2021/03/13 11:05:02;;;;;;;5.30;0.90;;;;;;;10.62;56.74;94823.66;5087564;28;20416;-91
2021/03/13 11:07:32;;;;;;;0.87;0.50;;;;;;;10.61;57.05;94812.19;5087083;28;20406;-91
2021/03/13 11:09:58;;;;;;;2.67;0.80;;;;;;;10.57;56.64;94822.72;5089525;28;20401;-90
2021/03/13 11:12:24;;;;;;;2.70;0.70;;;;;;;10.51;56.41;94797.34;5104421;28;20449;-90
2021/03/13 11:14:55;;;;;;;0.80;0.60;;;;;;;10.58;56.53;94801.84;5108210;28;20426;-94
2021/03/13 11:17:21;;;;;;;0.90;0.50;;;;;;;10.70;56.67;94822.22;5103377;28;20418;-86
2021/03/13 11:19:48;;;;;;;1.80;0.50;;;;;;;10.68;55.61;94811.28;5093009;28;20408;-91
2021/03/13 11:22:16;;;;;;;3.17;0.60;;;;;;;10.61;55.55;94825.69;5086297;28;20468;-92
2021/03/13 11:24:42;;;;;;;2.27;1.20;;;;;;;10.61;55.84;94801.41;5088714;28;20446;-92
2021/03/13 11:27:09;;;;;;;2.83;0.50;;;;;;;10.69;55.67;94785.03;5083873;28;20464;-90
2021/03/13 11:29:45;;;;;;;1.93;1.27;;;;;;;10.75;55.52;94833.97;5084056;28;20498;-89
2021/03/13 11:32:11;;;;;;;3.20;0.50;;;;;;;10.77;55.53;94815.22;5086244;28;20422;-92
2021/03/13 11:34:46;;;;;;;7.57;0.73;;;;;;;10.84;55.21;94835.19;5089244;28;20461;-91
2021/03/13 11:37:13;;;;;;;1.60;0.50;;;;;;;10.91;55.20;94812.69;5084256;28;20456;-91
2021/03/13 11:39:48;;;;;;;0.97;0.50;;;;;;;10.95;55.09;94812.94;5087811;28;20445;-93
2021/03/13 11:42:14;;;;;;;2.00;0.70;;;;;;;10.95;55.33;94812.94;5362923;22;20491;-91
2021/03/13 11:44:40;;;;;;;4.63;0.60;;;;;;;10.95;55.32;94821.03;5137381;27;20406;-92
2021/03/13 11:47:06;;;;;;;3.33;0.57;;;;;;;10.99;54.79;94821.31;5134061;27;20510;-95
2021/03/13 11:49:33;;;;;;;2.33;0.50;;;;;;;11.07;55.08;94825.22;5131109;27;20458;-90